Aviation Digital Data Service (ADDS)

Output produced by METARs form (1042 UTC 29 July 2014)
found at http://www.aviationweather.gov/adds/metars/
 
KGED 290954Z AUTO VRB03KT 10SM CLR 18/15 A2987 RMK AO2 SLP114 T01780150